Time;durP1;ratioP1;P1;durP2;ratioP2;P2;SDS_P1;SDS_P2;PMS_P1;PMS_P2;Temp;Humidity;BMP_temperature;BMP_pressure;BME280_temperature;BME280_humidity;BME280_pressure;Samples;Min_cycle;Max_cycle;Signal;HPM_P1;HPM_P2
2022/09/22 04:00:34;;;;;;;5.90;5.60;;;7.40;99.90;;;;;;5906198;23;20506;-62
2022/09/22 04:03:01;;;;;;;7.10;5.97;;;7.40;99.90;;;;;;4977553;28;20497;-62
2022/09/22 04:05:28;;;;;;;6.23;5.80;;;7.30;99.90;;;;;;4979148;28;20486;-62
2022/09/22 04:07:54;;;;;;;8.90;6.30;;;7.30;99.90;;;;;;4979476;28;20513;-62
2022/09/22 04:10:21;;;;;;;6.97;6.37;;;7.30;99.90;;;;;;4979450;28;20459;-62
2022/09/22 04:12:48;;;;;;;6.90;6.40;;;7.30;99.90;;;;;;4980061;28;20469;-62
2022/09/22 04:15:15;;;;;;;6.53;6.00;;;7.30;99.90;;;;;;4979978;28;20450;-62
2022/09/22 04:17:44;;;;;;;6.63;6.13;;;7.30;99.90;;;;;;4978726;28;20458;-62
2022/09/22 04:20:11;;;;;;;6.80;6.20;;;7.20;99.90;;;;;;4978763;28;20953;-62
2022/09/22 04:22:38;;;;;;;6.00;5.60;;;7.20;99.90;;;;;;4978459;28;20450;-61
2022/09/22 04:25:06;;;;;;;6.53;6.13;;;7.20;99.90;;;;;;4978253;28;20461;-62
2022/09/22 04:27:33;;;;;;;6.20;5.80;;;7.20;99.90;;;;;;4978780;28;20454;-61
2022/09/22 04:30:00;;;;;;;6.70;6.20;;;7.10;99.90;;;;;;4979855;28;20517;-61
2022/09/22 04:32:26;;;;;;;7.10;6.50;;;7.10;99.90;;;;;;4979235;28;20478;-62
2022/09/22 04:34:54;;;;;;;6.63;6.13;;;7.00;99.90;;;;;;4979143;28;20517;-62
2022/09/22 04:37:21;;;;;;;6.50;6.00;;;7.00;99.90;;;;;;4979103;28;20458;-63
2022/09/22 04:39:48;;;;;;;7.03;6.43;;;7.00;99.90;;;;;;4979043;28;20532;-62
2022/09/22 04:42:15;;;;;;;6.63;6.13;;;7.00;99.90;;;;;;4978593;28;20478;-62
2022/09/22 04:44:42;;;;;;;6.67;6.17;;;7.00;99.90;;;;;;4978250;28;20505;-62
2022/09/22 04:47:09;;;;;;;6.77;6.27;;;7.00;99.90;;;;;;4979340;28;20486;-62
2022/09/22 04:49:35;;;;;;;8.77;7.37;;;7.00;99.90;;;;;;4979943;28;20529;-61
2022/09/22 04:52:04;;;;;;;7.27;6.77;;;7.00;99.90;;;;;;4979861;28;20478;-62
2022/09/22 04:54:31;;;;;;;6.57;6.07;;;7.00;99.90;;;;;;4978780;28;20877;-62
2022/09/22 04:56:57;;;;;;;6.37;5.87;;;7.00;99.90;;;;;;4978953;28;20497;-61
2022/09/22 04:59:24;;;;;;;6.87;6.27;;;7.10;99.90;;;;;;4978012;28;20512;-63
2022/09/22 05:01:51;;;;;;;7.40;6.27;;;7.10;99.90;;;;;;4977425;28;20486;-62
2022/09/22 05:04:19;;;;;;;7.00;6.40;;;7.10;99.90;;;;;;4978083;28;20455;-63
2022/09/22 05:06:45;;;;;;;6.57;6.07;;;7.10;99.90;;;;;;4977295;28;21024;-62
2022/09/22 05:09:14;;;;;;;6.67;6.03;;;7.10;99.90;;;;;;4977453;28;20949;-61
2022/09/22 05:11:41;;;;;;;5.90;5.40;;;7.10;99.90;;;;;;4977757;28;20497;-61
2022/09/22 05:14:07;;;;;;;8.50;6.30;;;7.10;99.90;;;;;;4976565;28;21008;-62
2022/09/22 05:16:34;;;;;;;6.33;5.83;;;7.10;99.90;;;;;;4978101;28;20450;-62
2022/09/22 05:19:01;;;;;;;6.67;6.17;;;7.10;99.90;;;;;;4978154;28;20458;-62
2022/09/22 05:21:28;;;;;;;7.00;6.50;;;7.10;99.90;;;;;;4977569;28;20478;-62
2022/09/22 05:23:55;;;;;;;7.27;6.67;;;7.10;99.90;;;;;;4977625;28;20459;-62
2022/09/22 05:26:23;;;;;;;6.93;6.43;;;7.00;99.90;;;;;;4977443;28;20902;-62
2022/09/22 05:28:50;;;;;;;6.83;6.33;;;7.00;99.90;;;;;;4977779;28;20459;-62
2022/09/22 05:31:17;;;;;;;6.70;6.20;;;7.10;99.90;;;;;;4977270;28;20486;-61
2022/09/22 05:33:44;;;;;;;6.30;5.80;;;7.10;99.90;;;;;;4977507;28;20454;-62
2022/09/22 05:36:11;;;;;;;6.83;6.23;;;7.10;99.90;;;;;;4978013;28;20582;-62
2022/09/22 05:38:38;;;;;;;6.67;6.27;;;7.10;99.90;;;;;;4977049;28;20459;-63
2022/09/22 05:41:05;;;;;;;7.33;6.60;;;7.10;99.90;;;;;;4977143;28;20551;-61
2022/09/22 05:43:33;;;;;;;6.87;6.23;;;7.10;99.90;;;;;;4976873;28;20461;-61
2022/09/22 05:46:00;;;;;;;6.83;6.40;;;7.10;99.90;;;;;;4976426;28;20985;-61
2022/09/22 05:48:26;;;;;;;8.63;6.57;;;7.10;99.90;;;;;;4978315;28;20513;-62
2022/09/22 05:50:53;;;;;;;6.10;5.60;;;7.10;99.90;;;;;;4978685;28;20529;-62
2022/09/22 05:53:20;;;;;;;6.67;6.03;;;7.10;99.90;;;;;;4979245;28;20459;-62
2022/09/22 05:55:46;;;;;;;6.30;5.80;;;7.20;99.90;;;;;;4978776;28;20447;-62
2022/09/22 05:58:13;;;;;;;6.57;6.17;;;7.20;99.90;;;;;;4978775;28;20513;-61
2022/09/22 06:00:41;;;;;;;6.47;5.87;;;7.20;99.90;;;;;;4978366;28;20486;-62
2022/09/22 06:03:08;;;;;;;6.57;6.07;;;7.20;99.90;;;;;;4978733;28;20443;-61
2022/09/22 06:05:36;;;;;;;6.03;5.60;;;7.20;99.90;;;;;;4978378;28;20478;-62
2022/09/22 06:08:05;;;;;;;6.33;5.93;;;7.30;99.90;;;;;;4978135;28;20458;-61
2022/09/22 06:10:33;;;;;;;6.97;6.33;;;7.30;99.90;;;;;;4978601;28;20474;-61
2022/09/22 06:13:00;;;;;;;6.70;6.10;;;7.30;99.90;;;;;;4978330;28;20458;-61
2022/09/22 06:15:27;;;;;;;6.60;6.10;;;7.40;99.90;;;;;;4977859;28;20946;-61
2022/09/22 06:17:55;;;;;;;5.77;5.23;;;7.70;99.90;;;;;;4978152;28;20490;-62
2022/09/22 06:20:22;;;;;;;6.30;4.73;;;8.30;99.90;;;;;;4977940;28;20803;-61
2022/09/22 06:22:49;;;;;;;4.73;4.07;;;9.00;99.90;;;;;;4977924;28;20511;-61
2022/09/22 06:25:17;;;;;;;4.00;3.80;;;9.80;99.90;;;;;;4978233;28;20517;-63
2022/09/22 06:27:43;;;;;;;4.87;4.47;;;10.70;99.90;;;;;;4978390;28;20478;-63
2022/09/22 06:30:11;;;;;;;4.77;4.20;;;11.50;99.90;;;;;;4977596;28;20967;-63
2022/09/22 06:32:39;;;;;;;5.10;4.63;;;12.40;99.90;;;;;;4978238;28;20451;-62
2022/09/22 06:35:08;;;;;;;4.90;3.90;;;13.30;99.90;;;;;;4978237;28;20463;-62
2022/09/22 06:37:37;;;;;;;5.33;4.20;;;14.00;99.90;;;;;;4977119;28;20942;-62
2022/09/22 06:40:06;;;;;;;4.97;4.60;;;14.80;99.90;;;;;;4977248;28;20549;-62
2022/09/22 06:42:33;;;;;;;6.33;4.50;;;15.50;99.90;;;;;;4977170;28;20475;-62
2022/09/22 06:45:03;;;;;;;5.43;3.73;;;15.90;99.90;;;;;;4976399;28;20459;-62
2022/09/22 06:47:31;;;;;;;4.90;4.37;;;16.50;99.90;;;;;;4977254;28;20608;-62
2022/09/22 06:49:57;;;;;;;6.03;4.67;;;17.00;99.90;;;;;;4976374;28;20462;-62
2022/09/22 06:52:26;;;;;;;7.60;6.30;;;17.30;99.90;;;;;;4976176;28;20475;-62
2022/09/22 06:54:55;;;;;;;5.17;4.40;;;17.70;99.50;;;;;;4977215;28;20459;-62
2022/09/22 06:57:22;;;;;;;5.17;4.77;;;17.80;98.30;;;;;;4977090;28;20961;-61
2022/09/22 06:59:48;;;;;;;5.30;4.83;;;18.30;97.10;;;;;;4977257;28;20458;-61
2022/09/22 07:02:15;;;;;;;5.00;4.70;;;18.70;94.20;;;;;;4976732;28;20482;-61
2022/09/22 07:04:41;;;;;;;5.73;5.23;;;19.30;94.60;;;;;;4977438;28;20525;-61
2022/09/22 07:07:08;;;;;;;4.87;4.40;;;19.60;93.00;;;;;;4977423;28;20478;-62
2022/09/22 07:09:36;;;;;;;4.80;4.50;;;20.40;92.00;;;;;;4977301;28;20553;-62
2022/09/22 07:12:05;;;;;;;5.07;4.30;;;20.70;88.60;;;;;;4977960;28;20478;-62
2022/09/22 07:14:31;;;;;;;5.03;4.63;;;20.20;87.50;;;;;;4979981;28;20459;-62
2022/09/22 07:16:58;;;;;;;4.63;4.33;;;19.50;90.00;;;;;;4981147;28;20447;-62
2022/09/22 07:19:24;;;;;;;4.57;4.27;;;19.40;90.90;;;;;;4980768;28;20506;-62
2022/09/22 07:21:51;;;;;;;5.83;4.73;;;19.70;90.10;;;;;;4978776;28;20483;-61
2022/09/22 07:24:18;;;;;;;4.80;4.50;;;19.90;88.80;;;;;;4978356;28;20462;-61
2022/09/22 07:26:46;;;;;;;4.37;3.97;;;20.00;88.90;;;;;;4977166;28;20513;-62
2022/09/22 07:29:15;;;;;;;4.70;4.40;;;20.20;88.90;;;;;;4976259;28;20868;-63
2022/09/22 07:31:42;;;;;;;4.30;4.10;;;20.90;86.40;;;;;;4976775;28;20504;-62
2022/09/22 07:34:09;;;;;;;4.80;4.40;;;20.70;85.40;;;;;;4976957;28;20533;-62
2022/09/22 07:36:36;;;;;;;4.30;4.00;;;20.80;84.80;;;;;;4975523;28;20442;-62
2022/09/22 07:39:06;;;;;;;9.03;4.77;;;21.40;83.00;;;;;;4975493;28;20490;-62
2022/09/22 07:41:40;;;;;;;4.90;4.60;;;21.70;80.60;;;;;;4974959;28;20876;-62
2022/09/22 07:46:53;;;;;;;6.53;4.57;;;22.30;76.90;;;;;;4974908;28;20458;-62
2022/09/22 07:49:21;;;;;;;4.67;4.37;;;22.80;78.20;;;;;;4975089;28;20462;-61
2022/09/22 07:51:48;;;;;;;4.67;4.37;;;23.20;72.80;;;;;;4974993;28;20577;-62
2022/09/22 07:54:15;;;;;;;4.33;3.97;;;23.60;71.30;;;;;;4975058;28;20478;-63
2022/09/22 07:56:43;;;;;;;4.63;4.23;;;23.70;70.50;;;;;;4974963;28;20458;-62
2022/09/22 07:59:14;;;;;;;4.80;4.50;;;24.10;68.90;;;;;;4974588;28;20466;-62
2022/09/22 08:01:46;;;;;;;4.90;4.40;;;24.30;68.90;;;;;;4974704;28;20482;-62
2022/09/22 08:04:15;;;;;;;4.43;4.03;;;24.40;67.20;;;;;;4974775;28;20914;-62
2022/09/22 08:06:42;;;;;;;4.93;3.80;;;24.70;66.20;;;;;;4974720;28;20478;-63
2022/09/22 08:09:10;;;;;;;4.33;4.03;;;24.90;65.40;;;;;;4974418;28;20937;-63
2022/09/22 08:11:38;;;;;;;4.20;3.90;;;24.90;65.60;;;;;;4975408;28;20882;-62
2022/09/22 08:14:06;;;;;;;3.97;3.77;;;25.10;65.20;;;;;;4975328;28;20517;-62
2022/09/22 08:16:38;;;;;;;4.27;3.97;;;25.40;63.60;;;;;;4974900;28;20861;-61
2022/09/22 08:19:09;;;;;;;5.20;4.57;;;25.30;62.20;;;;;;4974630;28;20913;-66
2022/09/22 08:21:37;;;;;;;4.17;3.87;;;25.50;61.60;;;;;;4974786;28;20521;-62
2022/09/22 08:24:04;;;;;;;4.63;4.23;;;25.30;61.50;;;;;;4974562;28;20458;-62
2022/09/22 08:26:30;;;;;;;7.70;4.13;;;25.20;64.70;;;;;;4974638;28;20475;-63
2022/09/22 08:28:58;;;;;;;4.60;4.27;;;25.70;60.80;;;;;;4974189;28;20942;-63
2022/09/22 08:31:26;;;;;;;4.40;3.90;;;25.80;61.90;;;;;;4974628;28;20880;-62
2022/09/22 08:33:55;;;;;;;4.10;3.57;;;25.10;60.80;;;;;;4974434;28;20910;-62
2022/09/22 08:36:24;;;;;;;4.60;4.30;;;25.00;62.10;;;;;;4974558;28;20462;-62
2022/09/22 08:38:50;;;;;;;4.40;3.80;;;25.00;63.90;;;;;;4974658;28;20458;-62
2022/09/22 08:41:24;;;;;;;4.97;3.80;;;25.20;61.80;;;;;;4974562;28;20482;-63
2022/09/22 08:43:54;;;;;;;3.63;3.43;;;25.80;61.10;;;;;;4974703;28;20443;-62
2022/09/22 08:46:25;;;;;;;4.93;3.57;;;25.90;60.20;;;;;;4974210;28;20816;-62
2022/09/22 08:51:52;;;;;;;3.10;2.90;;;26.50;59.00;;;;;;4978079;28;20509;-63
2022/09/22 08:54:18;;;;;;;3.33;3.13;;;27.10;58.20;;;;;;4977943;28;20471;-62
2022/09/22 08:56:53;;;;;;;3.67;3.23;;;27.40;57.30;;;;;;4977560;28;20517;-63
2022/09/22 08:59:23;;;;;;;2.90;2.70;;;27.30;58.00;;;;;;4978651;28;20438;-63
2022/09/22 09:02:32;;;;;;;3.50;3.30;;;27.60;55.10;;;;;;4977620;28;20481;-63
2022/09/22 09:05:27;;;;;;;3.20;3.00;;;27.40;56.60;;;;;;4970008;28;20458;-63
2022/09/22 09:08:01;;;;;;;2.80;2.60;;;27.30;55.50;;;;;;4980249;28;20466;-63
2022/09/22 09:10:42;;;;;;;3.30;3.00;;;27.30;55.70;;;;;;4978266;28;20461;-63
2022/09/22 09:13:23;;;;;;;3.27;3.07;;;28.00;55.30;;;;;;4977861;28;20489;-63
2022/09/22 09:16:03;;;;;;;2.43;2.33;;;27.70;53.80;;;;;;4977643;28;20539;-63
2022/09/22 09:18:33;;;;;;;2.77;2.63;;;28.10;53.70;;;;;;4977773;28;20522;-63
2022/09/22 09:21:06;;;;;;;4.87;2.73;;;27.90;56.90;;;;;;4977563;28;20482;-63
2022/09/22 09:23:38;;;;;;;2.90;2.70;;;27.90;52.90;;;;;;4977482;28;20439;-63
2022/09/22 09:26:05;;;;;;;2.43;2.33;;;28.00;53.10;;;;;;4977343;28;20439;-63
2022/09/22 09:28:35;;;;;;;2.30;2.20;;;28.40;51.90;;;;;;4977253;28;20479;-63
2022/09/22 09:31:09;;;;;;;2.47;2.37;;;29.00;52.70;;;;;;4976868;28;21008;-63
2022/09/22 09:33:43;;;;;;;2.33;2.20;;;28.80;53.40;;;;;;4976842;28;20915;-63
2022/09/22 09:36:16;;;;;;;2.30;2.20;;;29.10;51.00;;;;;;4977152;28;20442;-64
2022/09/22 09:38:47;;;;;;;2.47;2.37;;;29.00;49.50;;;;;;4977236;28;20436;-63
2022/09/22 09:41:20;;;;;;;2.53;2.20;;;29.20;50.80;;;;;;4977278;28;20510;-63
2022/09/22 09:43:47;;;;;;;2.20;2.10;;;29.60;50.10;;;;;;4977484;28;20443;-62
2022/09/22 09:46:25;;;;;;;2.03;1.93;;;29.60;49.00;;;;;;4977272;28;20466;-64
2022/09/22 09:49:04;;;;;;;1.70;1.60;;;29.40;49.50;;;;;;4977489;28;20557;-64
2022/09/22 09:51:34;;;;;;;1.80;1.20;;;30.00;48.90;;;;;;4976904;28;20835;-63
2022/09/22 09:54:04;;;;;;;1.50;1.40;;;30.50;46.40;;;;;;4977180;28;20449;-63
2022/09/22 09:56:32;;;;;;;1.50;1.40;;;30.50;47.00;;;;;;4976872;28;20459;-63
2022/09/22 10:01:47;;;;;;;1.20;1.20;;;30.60;44.30;;;;;;4976275;28;20477;-63
2022/09/22 10:04:29;;;;;;;1.30;1.20;;;30.70;44.00;;;;;;4977065;28;20515;-63
2022/09/22 10:07:13;;;;;;;1.33;1.10;;;30.40;45.10;;;;;;4977291;28;20466;-64
2022/09/22 10:09:40;;;;;;;1.03;1.00;;;30.20;43.70;;;;;;4976952;28;20449;-62
2022/09/22 10:12:27;;;;;;;1.03;1.03;;;30.00;44.10;;;;;;4976625;28;20475;-63
2022/09/22 10:14:55;;;;;;;1.47;1.20;;;29.90;43.20;;;;;;4976649;28;20852;-63
2022/09/22 10:17:24;;;;;;;1.60;1.50;;;29.60;44.30;;;;;;4976650;28;20514;-62
2022/09/22 10:19:50;;;;;;;1.27;1.27;;;29.20;44.30;;;;;;4976623;28;20458;-63
2022/09/22 10:22:24;;;;;;;1.50;1.40;;;29.20;46.40;;;;;;4976436;28;20482;-63
2022/09/22 10:25:00;;;;;;;2.03;1.83;;;29.50;46.30;;;;;;4976275;28;20439;-62
2022/09/22 10:27:28;;;;;;;1.30;1.30;;;29.50;45.30;;;;;;4976522;28;20828;-63
2022/09/22 10:30:16;;;;;;;1.73;1.67;;;29.60;44.70;;;;;;4976159;28;20494;-64
2022/09/22 10:33:04;;;;;;;1.33;1.30;;;29.90;45.20;;;;;;4976330;28;20450;-63
2022/09/22 10:35:34;;;;;;;1.57;1.40;;;29.80;46.20;;;;;;4976548;28;20447;-63
2022/09/22 10:38:09;;;;;;;1.23;1.23;;;29.70;44.80;;;;;;4976119;28;20454;-63
2022/09/22 10:40:39;;;;;;;1.47;1.37;;;29.90;44.80;;;;;;4976187;28;20839;-64
2022/09/22 10:43:18;;;;;;;1.83;1.30;;;29.90;48.20;;;;;;4976566;28;20453;-63
2022/09/22 10:45:54;;;;;;;1.70;1.60;;;29.80;45.90;;;;;;4976287;28;20514;-63
2022/09/22 10:48:30;;;;;;;1.70;1.60;;;29.90;44.70;;;;;;4975981;28;20870;-63
2022/09/22 10:51:04;;;;;;;1.70;1.60;;;29.80;44.10;;;;;;4975958;28;20481;-64
2022/09/22 10:54:04;;;;;;;1.50;1.40;;;29.50;45.60;;;;;;4975632;28;20438;-63
2022/09/22 10:56:36;;;;;;;1.37;1.13;;;28.90;45.20;;;;;;4975764;28;20450;-63
2022/09/22 10:59:20;;;;;;;1.40;1.30;;;28.30;45.30;;;;;;4976716;28;20865;-63
2022/09/22 11:02:01;;;;;;;1.13;1.13;;;27.50;46.10;;;;;;4975382;28;20830;-63
2022/09/22 11:04:50;;;;;;;1.10;1.10;;;26.70;49.00;;;;;;4975643;28;20506;-62
2022/09/22 11:13:25;;;;;;;2.97;1.17;;;25.50;51.50;;;;;;4974987;28;20430;-63
2022/09/22 11:16:12;;;;;;;1.20;1.20;;;24.90;51.10;;;;;;4975445;28;20450;-63
2022/09/22 11:18:58;;;;;;;1.20;1.20;;;24.40;50.00;;;;;;4969038;28;20450;-63
2022/09/22 11:21:43;;;;;;;1.20;1.20;;;23.90;51.20;;;;;;4975575;28;20569;-63
2022/09/22 11:24:23;;;;;;;1.77;1.40;;;23.60;53.00;;;;;;4975800;28;20471;-64
2022/09/22 11:26:53;;;;;;;1.37;1.33;;;23.40;52.10;;;;;;4975434;28;20442;-63
2022/09/22 11:29:48;;;;;;;1.50;1.37;;;23.20;52.70;;;;;;4975073;28;21031;-63
2022/09/22 11:32:40;;;;;;;1.07;1.07;;;23.10;53.10;;;;;;4974995;28;21039;-63
2022/09/22 11:35:26;;;;;;;1.50;1.40;;;22.90;55.60;;;;;;4975190;28;20443;-63
2022/09/22 11:38:08;;;;;;;1.73;1.50;;;23.00;53.90;;;;;;4975679;28;20501;-63
2022/09/22 11:40:55;;;;;;;0.90;0.90;;;22.90;55.30;;;;;;4975319;28;20836;-64
2022/09/22 11:43:42;;;;;;;1.33;1.33;;;22.70;55.90;;;;;;4975179;28;20442;-63
2022/09/22 11:46:18;;;;;;;2.30;1.37;;;22.80;55.70;;;;;;4974695;28;20811;-64
2022/09/22 11:48:59;;;;;;;1.67;1.17;;;23.00;54.00;;;;;;4975203;28;20520;-63
2022/09/22 11:51:38;;;;;;;1.40;1.23;;;22.80;53.10;;;;;;4974905;28;20478;-64
2022/09/22 11:54:24;;;;;;;1.23;1.23;;;22.70;53.60;;;;;;4974900;28;20442;-64
2022/09/22 11:56:54;;;;;;;1.27;0.97;;;22.70;55.80;;;;;;4974818;28;20806;-63
2022/09/22 11:59:32;;;;;;;1.23;1.23;;;22.50;54.20;;;;;;4974825;28;21025;-63
2022/09/22 12:02:04;;;;;;;1.30;1.20;;;22.50;56.20;;;;;;4974760;28;20491;-63
2022/09/22 12:04:38;;;;;;;1.00;1.00;;;22.40;55.80;;;;;;4975132;28;20466;-62
2022/09/22 12:07:09;;;;;;;1.20;1.10;;;22.30;55.80;;;;;;4974832;28;20470;-62
2022/09/22 12:09:40;;;;;;;1.87;1.33;;;22.40;55.10;;;;;;4975320;28;20526;-64
2022/09/22 12:12:14;;;;;;;2.70;2.50;;;22.40;54.60;;;;;;4975268;28;20483;-63
2022/09/22 12:14:43;;;;;;;1.27;1.17;;;22.50;55.00;;;;;;4975229;28;20942;-63
2022/09/22 12:17:17;;;;;;;1.27;1.27;;;22.60;55.50;;;;;;4975081;28;20455;-63
2022/09/22 12:19:54;;;;;;;1.37;1.17;;;22.60;56.60;;;;;;4975228;28;20439;-63
2022/09/22 12:22:27;;;;;;;1.30;1.30;;;22.70;54.30;;;;;;4975182;28;20478;-63
2022/09/22 12:24:54;;;;;;;0.97;0.97;;;22.60;56.10;;;;;;4978765;28;20890;-63
2022/09/22 12:27:22;;;;;;;1.30;1.20;;;22.60;55.60;;;;;;4978398;28;20996;-63
2022/09/22 12:29:59;;;;;;;1.37;1.20;;;22.70;57.60;;;;;;4978669;28;20459;-64
2022/09/22 12:32:36;;;;;;;1.30;1.20;;;22.80;54.80;;;;;;4978732;28;20478;-63
2022/09/22 12:35:04;;;;;;;1.67;1.57;;;22.90;55.40;;;;;;4978922;28;20443;-63
2022/09/22 12:37:33;;;;;;;1.50;1.50;;;22.60;54.90;;;;;;4978884;28;20462;-63
2022/09/22 12:40:07;;;;;;;1.13;1.13;;;22.50;54.40;;;;;;4979484;28;20880;-62
2022/09/22 12:42:36;;;;;;;1.20;1.20;;;22.50;55.70;;;;;;4978890;28;21032;-62
2022/09/22 12:45:09;;;;;;;1.27;1.13;;;22.70;55.40;;;;;;4978296;28;20976;-63
2022/09/22 12:47:39;;;;;;;1.17;1.17;;;22.80;53.80;;;;;;4978599;28;20462;-63
2022/09/22 12:50:28;;;;;;;1.00;1.00;;;22.90;55.60;;;;;;4978544;28;20451;-63
2022/09/22 12:53:05;;;;;;;1.90;1.63;;;23.10;57.00;;;;;;4977689;28;20510;-63
2022/09/22 12:55:38;;;;;;;1.43;1.43;;;23.10;53.20;;;;;;4978031;28;20833;-63
2022/09/22 12:58:20;;;;;;;1.80;1.30;;;23.20;55.20;;;;;;4978183;28;20442;-63
2022/09/22 13:00:49;;;;;;;1.13;1.13;;;23.20;55.00;;;;;;4976711;28;20581;-63
2022/09/22 13:03:48;;;;;;;1.60;1.20;;;23.20;55.50;;;;;;4977785;28;20454;-62
2022/09/22 13:07:04;;;;;;;1.00;1.00;;;23.40;54.70;;;;;;4977435;28;20533;-62
2022/09/22 13:09:31;;;;;;;1.23;1.10;;;23.20;53.90;;;;;;4937375;29;20471;-62
2022/09/22 13:12:24;;;;;;;1.00;1.00;;;23.20;54.00;;;;;;4968060;28;20486;-61
2022/09/22 13:15:00;;;;;;;1.20;1.20;;;23.30;53.10;;;;;;4978154;28;20482;-62
2022/09/22 13:17:40;;;;;;;1.53;1.43;;;23.30;52.80;;;;;;4977962;28;20442;-62
2022/09/22 13:20:25;;;;;;;1.50;1.40;;;23.40;54.80;;;;;;4979059;28;20502;-63
2022/09/22 13:22:55;;;;;;;1.23;1.23;;;23.10;54.40;;;;;;4978986;28;20438;-64
2022/09/22 13:25:27;;;;;;;1.50;1.50;;;23.20;53.70;;;;;;4980342;28;20461;-64
2022/09/22 13:28:19;;;;;;;1.67;1.57;;;23.30;54.50;;;;;;4978428;28;20823;-63
2022/09/22 13:30:48;;;;;;;1.23;1.23;;;23.30;55.40;;;;;;4967314;28;20500;-63
2022/09/22 13:33:24;;;;;;;3.17;0.93;;;23.30;54.50;;;;;;4977171;28;20477;-63
2022/09/22 13:36:01;;;;;;;1.37;1.30;;;23.10;53.50;;;;;;4976431;28;20430;-63
2022/09/22 13:38:29;;;;;;;1.70;1.60;;;23.00;53.80;;;;;;4976831;28;20810;-62
2022/09/22 13:40:55;;;;;;;1.20;1.10;;;23.10;54.20;;;;;;4977046;28;20565;-63
2022/09/22 13:43:31;;;;;;;1.10;1.10;;;23.00;53.50;;;;;;4977072;28;20501;-63
2022/09/22 13:46:00;;;;;;;1.00;1.00;;;23.00;52.60;;;;;;4976541;28;20940;-63
2022/09/22 13:48:31;;;;;;;0.97;0.97;;;23.00;53.10;;;;;;4976748;28;20522;-61
2022/09/22 13:51:02;;;;;;;1.40;1.30;;;22.90;51.30;;;;;;4976614;28;21006;-62
2022/09/22 13:53:30;;;;;;;2.40;1.03;;;22.80;51.20;;;;;;4976994;28;20494;-62
2022/09/22 13:55:57;;;;;;;2.20;1.60;;;22.80;52.70;;;;;;4976756;28;20461;-62
2022/09/22 13:58:32;;;;;;;1.33;1.20;;;22.80;52.60;;;;;;4976884;28;20451;-63
2022/09/22 14:01:00;;;;;;;1.47;1.37;;;22.80;53.30;;;;;;4976450;28;20513;-62
2022/09/22 14:03:29;;;;;;;1.63;1.53;;;22.90;54.80;;;;;;4976563;28;20458;-64
2022/09/22 14:05:57;;;;;;;1.97;1.67;;;23.00;52.50;;;;;;4976645;28;20534;-63
2022/09/22 14:08:29;;;;;;;1.37;1.30;;;22.80;54.20;;;;;;4976334;28;20478;-63
2022/09/22 14:10:57;;;;;;;1.00;1.00;;;22.90;53.80;;;;;;4976863;28;20533;-63
2022/09/22 14:13:41;;;;;;;1.40;1.30;;;22.80;53.00;;;;;;4976525;28;20465;-63
2022/09/22 14:16:15;;;;;;;1.40;1.30;;;22.80;53.90;;;;;;4976597;28;20454;-63
2022/09/22 14:18:46;;;;;;;1.17;1.13;;;22.80;51.70;;;;;;4976663;28;20526;-63
2022/09/22 14:21:13;;;;;;;1.40;1.30;;;22.90;54.00;;;;;;4976882;28;20475;-63
2022/09/22 14:23:45;;;;;;;1.70;1.27;;;22.90;54.10;;;;;;4976009;28;21008;-63
2022/09/22 14:26:24;;;;;;;1.30;1.30;;;22.80;53.60;;;;;;4976233;28;20942;-63
2022/09/22 14:28:52;;;;;;;3.30;1.20;;;22.80;55.10;;;;;;4976246;28;20514;-63
2022/09/22 14:31:24;;;;;;;1.00;1.00;;;22.80;52.70;;;;;;4975934;28;21070;-63
2022/09/22 14:33:53;;;;;;;1.17;1.17;;;22.70;54.00;;;;;;4976781;28;20443;-62
2022/09/22 14:36:23;;;;;;;1.33;1.33;;;22.60;53.30;;;;;;4976315;28;20957;-64
2022/09/22 14:38:55;;;;;;;1.20;1.20;;;22.60;54.10;;;;;;4976650;28;20435;-63
2022/09/22 14:41:23;;;;;;;1.10;1.10;;;22.60;54.00;;;;;;4976444;28;20478;-63
2022/09/22 14:43:51;;;;;;;1.70;1.60;;;22.50;54.00;;;;;;4976432;28;20465;-62
2022/09/22 14:46:23;;;;;;;1.90;1.80;;;22.20;53.90;;;;;;4976028;28;20459;-62
2022/09/22 14:48:51;;;;;;;4.47;2.00;;;22.10;55.10;;;;;;4976067;28;20554;-62
2022/09/22 14:51:21;;;;;;;9.40;4.57;;;22.00;55.50;;;;;;4976492;28;20485;-62
2022/09/22 14:53:49;;;;;;;1.63;1.53;;;22.10;55.90;;;;;;4975870;28;20459;-62
2022/09/22 14:56:21;;;;;;;1.47;1.37;;;22.00;56.00;;;;;;4975975;28;20461;-62
2022/09/22 14:58:51;;;;;;;7.60;2.87;;;22.00;55.60;;;;;;4976132;28;20799;-62
2022/09/22 15:04:15;;;;;;;3.03;2.23;;;22.00;53.60;;;;;;4975805;28;20430;-62
2022/09/22 15:06:42;;;;;;;1.50;1.40;;;21.90;54.20;;;;;;4975907;28;20443;-63
2022/09/22 15:09:21;;;;;;;1.50;1.40;;;21.70;54.40;;;;;;4975705;28;20488;-62
2022/09/22 15:11:49;;;;;;;5.80;2.43;;;21.50;55.10;;;;;;4976232;28;20867;-64
2022/09/22 15:14:40;;;;;;;1.80;1.70;;;21.30;54.70;;;;;;4975620;28;20501;-63
2022/09/22 15:20:23;;;;;;;1.57;1.47;;;21.10;55.70;;;;;;4975698;28;20435;-63
2022/09/22 15:22:52;;;;;;;1.50;1.40;;;21.00;55.00;;;;;;4975438;28;20473;-62
2022/09/22 15:25:19;;;;;;;1.43;1.33;;;21.00;56.40;;;;;;4975925;28;20455;-62
2022/09/22 15:27:46;;;;;;;2.27;2.07;;;20.90;56.20;;;;;;4975514;28;20455;-63
2022/09/22 15:30:14;;;;;;;3.40;2.20;;;20.80;56.90;;;;;;4975914;28;20513;-64
2022/09/22 15:32:41;;;;;;;1.77;1.70;;;20.70;57.40;;;;;;4976236;28;20876;-63
2022/09/22 15:35:08;;;;;;;2.13;2.03;;;20.60;57.40;;;;;;4975609;28;20463;-63
2022/09/22 15:37:38;;;;;;;1.47;1.30;;;20.60;57.80;;;;;;4975952;28;20459;-63
2022/09/22 15:40:16;;;;;;;2.10;1.87;;;20.60;57.90;;;;;;4975274;28;20455;-63
2022/09/22 15:42:43;;;;;;;2.60;1.50;;;20.50;57.50;;;;;;4975113;28;20478;-64
2022/09/22 15:45:12;;;;;;;1.50;1.50;;;20.50;57.40;;;;;;4975537;28;20459;-63
2022/09/22 15:47:39;;;;;;;1.80;1.70;;;20.40;58.00;;;;;;4975367;28;20478;-62
2022/09/22 15:50:12;;;;;;;1.60;1.50;;;20.20;63.60;;;;;;4975474;28;20490;-63
2022/09/22 15:52:43;;;;;;;1.50;1.40;;;20.20;65.10;;;;;;4975564;28;20474;-63
2022/09/22 15:55:13;;;;;;;2.80;2.60;;;20.10;65.40;;;;;;4975552;28;20865;-63
2022/09/22 15:57:41;;;;;;;4.07;3.27;;;20.10;61.30;;;;;;4975238;28;20462;-63
2022/09/22 16:00:14;;;;;;;2.43;2.20;;;19.90;59.00;;;;;;4978883;28;20451;-62
2022/09/22 16:02:41;;;;;;;3.30;1.80;;;19.80;59.30;;;;;;4979299;28;20434;-62
2022/09/22 16:05:09;;;;;;;1.60;1.50;;;19.70;58.30;;;;;;4979183;28;20455;-63
2022/09/22 16:07:37;;;;;;;2.10;1.27;;;19.60;58.50;;;;;;4979266;28;20511;-64
2022/09/22 16:10:06;;;;;;;6.53;1.47;;;19.60;58.80;;;;;;4979107;28;20507;-63
2022/09/22 16:12:32;;;;;;;1.30;1.30;;;19.40;57.70;;;;;;4979259;28;20479;-63
2022/09/22 16:15:01;;;;;;;1.33;1.23;;;19.30;57.90;;;;;;4978898;28;20463;-63
2022/09/22 16:17:28;;;;;;;3.07;1.67;;;19.20;57.60;;;;;;4979132;28;20450;-62
2022/09/22 16:19:55;;;;;;;1.43;1.37;;;19.10;58.10;;;;;;4978778;28;20863;-63
2022/09/22 16:22:23;;;;;;;2.73;1.73;;;19.00;59.20;;;;;;4978561;28;20506;-63
2022/09/22 16:24:50;;;;;;;2.23;2.07;;;18.90;59.30;;;;;;4978615;28;20484;-62
2022/09/22 16:27:18;;;;;;;1.57;1.40;;;18.90;60.00;;;;;;4978876;28;20454;-63
2022/09/22 16:29:44;;;;;;;1.90;1.80;;;18.80;60.10;;;;;;4979308;28;20474;-63
2022/09/22 16:32:11;;;;;;;2.03;1.60;;;18.70;59.90;;;;;;4978664;28;20892;-63
2022/09/22 16:34:38;;;;;;;1.37;1.30;;;18.70;61.20;;;;;;4978575;28;20478;-62
2022/09/22 16:37:05;;;;;;;1.67;1.57;;;18.60;60.60;;;;;;4978396;28;20881;-62
2022/09/22 16:39:31;;;;;;;4.17;2.00;;;18.60;60.60;;;;;;4978278;28;20457;-63
2022/09/22 16:41:58;;;;;;;2.10;1.63;;;18.50;60.80;;;;;;4978285;28;20533;-64
2022/09/22 16:44:26;;;;;;;2.50;1.73;;;18.50;61.30;;;;;;4978292;28;20865;-63
2022/09/22 16:46:53;;;;;;;1.77;1.43;;;18.50;63.30;;;;;;4978196;28;20454;-62
2022/09/22 16:49:20;;;;;;;1.47;1.37;;;18.40;62.90;;;;;;4978118;28;20488;-62
2022/09/22 16:51:49;;;;;;;2.73;1.30;;;18.30;63.80;;;;;;4978223;28;20569;-62
2022/09/22 16:54:17;;;;;;;2.70;1.90;;;18.20;63.20;;;;;;4978318;28;20466;-63
2022/09/22 16:56:45;;;;;;;1.60;1.50;;;18.10;63.30;;;;;;4978229;28;20461;-63
2022/09/22 16:59:16;;;;;;;1.97;1.43;;;18.00;63.70;;;;;;4978178;28;20546;-62
2022/09/22 17:01:44;;;;;;;2.10;1.50;;;17.80;64.30;;;;;;4977497;28;20537;-63
2022/09/22 17:04:14;;;;;;;1.27;1.20;;;17.70;64.90;;;;;;4978019;28;20939;-63
2022/09/22 17:06:41;;;;;;;1.67;1.63;;;17.60;65.30;;;;;;4977988;28;20481;-62
2022/09/22 17:09:09;;;;;;;2.63;2.10;;;17.50;65.50;;;;;;4977823;28;20482;-62
2022/09/22 17:11:38;;;;;;;2.20;2.00;;;17.50;66.60;;;;;;4977414;28;20840;-62
2022/09/22 17:14:07;;;;;;;2.43;2.07;;;17.40;66.90;;;;;;4978604;28;20469;-62
2022/09/22 17:16:35;;;;;;;1.60;1.60;;;17.30;66.90;;;;;;4978318;28;20462;-63
2022/09/22 17:19:06;;;;;;;1.80;1.47;;;17.20;67.50;;;;;;4978499;28;20477;-64
2022/09/22 17:21:34;;;;;;;1.60;1.43;;;17.20;67.60;;;;;;4978044;28;20474;-63
2022/09/22 17:24:03;;;;;;;1.47;1.37;;;17.10;67.80;;;;;;4978266;28;20455;-63
2022/09/22 17:26:32;;;;;;;1.80;1.70;;;17.00;68.30;;;;;;4977502;28;20533;-63
2022/09/22 17:28:59;;;;;;;1.53;1.53;;;16.90;68.60;;;;;;4977580;28;20454;-63